createdAt,value
2019-05-29T00:00:21.460Z,97606.09
2019-05-29T00:02:35.705Z,97612.98
2019-05-29T00:05:14.295Z,97616.70
2019-05-29T00:10:22.656Z,97619.02
2019-05-29T00:12:56.844Z,97626.04
2019-05-29T00:15:44.711Z,97628.61
2019-05-29T00:18:22.404Z,97627.14
2019-05-29T00:23:58.664Z,97628.72
2019-05-29T00:26:41.199Z,97632.25
2019-05-29T00:29:28.802Z,97633.42
2019-05-29T00:31:50.349Z,97641.19
2019-05-29T00:37:20.671Z,97632.28
2019-05-29T00:39:41.905Z,97633.81
2019-05-29T00:42:15.880Z,97631.95
2019-05-29T00:45:02.747Z,97634.31
2019-05-29T00:47:21.174Z,97635.60
2019-05-29T00:49:57.543Z,97640.88
2019-05-29T00:52:31.249Z,97646.23
2019-05-29T00:55:12.633Z,97645.20
2019-05-29T00:57:33.024Z,97642.50
2019-05-29T01:05:22.327Z,97648.02
2019-05-29T01:08:00.948Z,97646.77
2019-05-29T01:10:51.725Z,97648.88
2019-05-29T01:13:52.089Z,97650.75
2019-05-29T01:16:15.646Z,97646.06
2019-05-29T01:18:34.298Z,97653.32
2019-05-29T01:21:12.379Z,97658.55
2019-05-29T01:24:04.135Z,97652.25
2019-05-29T01:26:47.361Z,97650.50
2019-05-29T01:29:31.102Z,97660.41
2019-05-29T01:32:15.566Z,97663.11
2019-05-29T01:37:27.060Z,97667.52
2019-05-29T01:40:18.784Z,97675.22
2019-05-29T01:42:44.608Z,97676.05
2019-05-29T01:45:09.098Z,97670.91
2019-05-29T01:47:49.866Z,97665.68
2019-05-29T01:50:32.121Z,97660.78
2019-05-29T01:53:13.767Z,97661.85
2019-05-29T01:56:03.243Z,97672.55
2019-05-29T02:01:11.051Z,97666.75
2019-05-29T02:03:47.196Z,97672.69
2019-05-29T02:06:39.556Z,97667.09
2019-05-29T02:09:18.175Z,97679.58
2019-05-29T02:11:44.607Z,97675.22
2019-05-29T02:14:32.474Z,97673.10
2019-05-29T02:17:03.793Z,97679.90
2019-05-29T02:19:50.912Z,97686.33
2019-05-29T02:22:13.145Z,97689.58
2019-05-29T02:24:47.977Z,97697.08
2019-05-29T02:27:29.470Z,97694.84
2019-05-29T02:30:01.021Z,97702.22
2019-05-29T02:32:25.605Z,97705.00
2019-05-29T02:37:47.763Z,97706.28
2019-05-29T02:40:06.826Z,97712.83
2019-05-29T02:42:47.361Z,97713.63
2019-05-29T02:45:07.680Z,97725.69
2019-05-29T02:47:47.013Z,97732.59
2019-05-29T02:50:26.144Z,97728.14
2019-05-29T02:56:02.833Z,97741.47
2019-05-29T02:58:27.752Z,97744.28
2019-05-29T03:01:23.563Z,97747.56
2019-05-29T03:03:57.857Z,97750.22
2019-05-29T03:06:49.095Z,97750.67
2019-05-29T03:09:10.714Z,97762.04
2019-05-29T03:11:46.685Z,97759.42
2019-05-29T03:14:14.745Z,97766.36
2019-05-29T03:16:59.952Z,97765.03
2019-05-29T03:19:36.490Z,97774.48
2019-05-29T03:22:20.742Z,97780.34
2019-05-29T03:24:34.941Z,97775.56
2019-05-29T03:30:17.840Z,97777.09
2019-05-29T03:33:02.703Z,97777.09
2019-05-29T03:35:48.841Z,97781.31
2019-05-29T03:38:15.737Z,97784.69
2019-05-29T03:40:33.583Z,97787.83
2019-05-29T03:46:26.402Z,97804.42
2019-05-29T03:49:00.251Z,97803.12
2019-05-29T03:51:38.911Z,97814.66
2019-05-29T03:54:01.306Z,97827.93
2019-05-29T03:56:39.520Z,97827.48
2019-05-29T03:59:05.438Z,97833.23
2019-05-29T04:01:44.954Z,97837.00
2019-05-29T04:04:04.551Z,97840.28
2019-05-29T04:06:47.049Z,97842.49
2019-05-29T04:09:08.170Z,97849.27
2019-05-29T04:11:43.924Z,97857.48
2019-05-29T04:17:13.660Z,97860.17
2019-05-29T04:19:36.919Z,97867.28
2019-05-29T04:21:56.794Z,97875.95
2019-05-29T04:24:11.657Z,97877.61
2019-05-29T04:26:44.237Z,97879.70
2019-05-29T04:29:38.216Z,97885.20
2019-05-29T04:32:17.014Z,97891.86
2019-05-29T04:34:33.785Z,97893.23
2019-05-29T04:36:50.857Z,97908.09
2019-05-29T04:41:59.613Z,97910.40
2019-05-29T04:44:19.073Z,97927.05
2019-05-29T04:47:11.153Z,97924.20
2019-05-29T04:49:51.669Z,97926.88
2019-05-29T04:52:44.008Z,97933.09
2019-05-29T04:55:31.306Z,97936.13
2019-05-29T04:58:19.247Z,97952.22
2019-05-29T05:01:00.553Z,97952.75
2019-05-29T05:03:24.938Z,97956.83
2019-05-29T05:05:43.691Z,97955.39
2019-05-29T05:08:03.674Z,97966.13
2019-05-29T05:10:40.789Z,97964.57
2019-05-29T05:13:24.496Z,97969.61
2019-05-29T05:19:03.453Z,97975.89
2019-05-29T05:21:54.763Z,97975.69
2019-05-29T05:24:36.288Z,97980.44
2019-05-29T05:27:00.121Z,97990.70
2019-05-29T05:29:38.497Z,97996.89
2019-05-29T05:32:25.832Z,97995.50
2019-05-29T05:34:53.322Z,98002.42
2019-05-29T05:37:34.683Z,98010.41
2019-05-29T05:40:19.055Z,98018.03
2019-05-29T05:42:57.340Z,98018.65
2019-05-29T05:45:17.350Z,98021.91
2019-05-29T05:47:52.988Z,98024.90
2019-05-29T05:50:13.397Z,98034.13
2019-05-29T05:52:42.797Z,98030.94
2019-05-29T05:57:50.204Z,98028.70
2019-05-29T06:00:23.399Z,98035.33
2019-05-29T06:05:42.204Z,98048.11
2019-05-29T06:11:01.766Z,98056.91
2019-05-29T06:13:21.234Z,98059.18
2019-05-29T06:16:04.466Z,98066.78
2019-05-29T06:18:56.351Z,98074.47
2019-05-29T06:21:20.883Z,98081.56
2019-05-29T06:23:36.967Z,98091.45
2019-05-29T06:25:51.425Z,98092.05
2019-05-29T06:28:13.868Z,98104.02
2019-05-29T06:30:39.353Z,98107.27
2019-05-29T06:33:20.047Z,98115.02
2019-05-29T06:35:43.786Z,98117.30
2019-05-29T06:38:19.272Z,98124.65
2019-05-29T06:40:53.992Z,98126.45
2019-05-29T06:43:17.047Z,98132.67
2019-05-29T06:45:51.877Z,98138.83
2019-05-29T06:48:42.554Z,98146.22
2019-05-29T06:50:58.065Z,98141.30
2019-05-29T06:53:37.821Z,98148.33
2019-05-29T06:56:10.716Z,98161.95
2019-05-29T06:59:01.232Z,98162.75
2019-05-29T07:01:47.651Z,98163.94
2019-05-29T07:04:33.581Z,98168.42
2019-05-29T07:07:11.381Z,98170.67
2019-05-29T07:10:05.875Z,98177.11
2019-05-29T07:12:48.189Z,98171.44
2019-05-29T07:15:36.149Z,98174.72
2019-05-29T07:18:12.687Z,98184.89
2019-05-29T07:21:01.954Z,98191.38
2019-05-29T07:23:45.139Z,98197.39
2019-05-29T07:26:09.167Z,98210.07
2019-05-29T07:31:34.795Z,98213.65
2019-05-29T07:37:02.072Z,98222.70
2019-05-29T07:39:48.441Z,98227.28
2019-05-29T07:42:25.769Z,98229.30
2019-05-29T07:45:01.075Z,98240.06
2019-05-29T07:47:22.722Z,98244.94
2019-05-29T07:52:53.580Z,98250.78
2019-05-29T07:55:49.820Z,98251.78
2019-05-29T07:58:15.328Z,98276.49
2019-05-29T08:01:09.624Z,98265.48
2019-05-29T08:03:14.540Z,98271.36
2019-05-29T08:05:41.097Z,98269.89
2019-05-29T08:08:19.697Z,98286.41
2019-05-29T08:10:59.034Z,98282.42
2019-05-29T08:13:43.349Z,98285.56
2019-05-29T08:16:03.589Z,98283.70
2019-05-29T08:18:45.615Z,98292.73
2019-05-29T08:21:07.298Z,98299.08
2019-05-29T08:23:56.331Z,98310.86
2019-05-29T08:26:23.861Z,98310.33
2019-05-29T08:28:42.673Z,98316.98
2019-05-29T08:34:11.689Z,98323.72
2019-05-29T08:37:06.594Z,98329.31
2019-05-29T08:39:49.568Z,98333.66
2019-05-29T08:42:23.793Z,98338.42
2019-05-29T08:45:03.063Z,98343.47
2019-05-29T08:47:37.383Z,98341.81
2019-05-29T08:49:54.646Z,98354.11
2019-05-29T08:54:58.115Z,98345.36
2019-05-29T08:57:38.579Z,98342.23
2019-05-29T09:02:51.233Z,98355.28
2019-05-29T09:05:25.529Z,98353.74
2019-05-29T09:10:57.514Z,98362.92
2019-05-29T09:13:24.357Z,98363.57
2019-05-29T09:16:09.434Z,98378.88
2019-05-29T09:18:32.378Z,98369.73
2019-05-29T09:26:33.127Z,98377.45
2019-05-29T09:28:54.283Z,98389.72
2019-05-29T09:34:25.152Z,98386.13
2019-05-29T09:37:20.490Z,98404.83
2019-05-29T09:40:06.423Z,98400.14
2019-05-29T09:42:53.646Z,98411.02
2019-05-29T09:45:32.984Z,98415.70
2019-05-29T09:50:51.965Z,98431.72
2019-05-29T09:53:06.208Z,98425.64
2019-05-29T09:55:20.661Z,98428.75
2019-05-29T09:57:36.342Z,98442.80
2019-05-29T10:00:14.757Z,98433.83
2019-05-29T10:03:03.770Z,98444.42
2019-05-29T10:05:44.868Z,98447.55
2019-05-29T10:08:40.107Z,98448.33
2019-05-29T10:11:08.687Z,98450.16
2019-05-29T10:13:40.449Z,98446.99
2019-05-29T10:16:04.684Z,98448.28
2019-05-29T10:18:39.973Z,98454.86
2019-05-29T10:21:10.917Z,98458.68
2019-05-29T10:23:46.639Z,98455.79
2019-05-29T10:26:27.742Z,98460.81
2019-05-29T10:29:10.467Z,98463.46
2019-05-29T10:31:58.913Z,98471.16
2019-05-29T10:34:33.304Z,98469.87
2019-05-29T10:36:59.659Z,98480.98
2019-05-29T10:39:34.359Z,98477.59
2019-05-29T10:41:54.380Z,98479.19
2019-05-29T10:47:25.928Z,98479.69
2019-05-29T10:50:04.576Z,98489.69
2019-05-29T10:52:25.980Z,98491.15
2019-05-29T10:54:58.664Z,98501.92
2019-05-29T11:00:37.973Z,98507.33
2019-05-29T11:02:59.026Z,98507.08
2019-05-29T11:08:15.649Z,98511.70
2019-05-29T11:10:36.348Z,98513.66
2019-05-29T11:16:07.326Z,98524.11
2019-05-29T11:19:01.401Z,98525.27
2019-05-29T11:21:34.584Z,98528.45
2019-05-29T11:27:06.569Z,98531.73
2019-05-29T11:32:23.706Z,98540.82
2019-05-29T11:34:59.645Z,98531.01
2019-05-29T11:37:39.904Z,98532.04
2019-05-29T11:40:25.504Z,98530.22
2019-05-29T11:43:09.934Z,98535.81
2019-05-29T11:46:01.903Z,98540.38
2019-05-29T11:48:40.748Z,98553.44
2019-05-29T11:51:19.032Z,98555.77
2019-05-29T11:54:02.444Z,98556.73
2019-05-29T11:56:31.472Z,98559.98
2019-05-29T11:59:08.844Z,98564.78
2019-05-29T12:01:50.092Z,98571.98
2019-05-29T12:04:26.647Z,98573.89
2019-05-29T12:07:09.722Z,98569.00
2019-05-29T12:09:51.399Z,98579.11
2019-05-29T12:15:18.994Z,98585.09
2019-05-29T12:20:49.033Z,98590.53
2019-05-29T12:23:39.997Z,98593.88
2019-05-29T12:26:26.346Z,98608.95
2019-05-29T12:29:12.551Z,98608.42
2019-05-29T12:31:57.100Z,98595.12
2019-05-29T12:37:27.239Z,98602.85
2019-05-29T12:40:03.766Z,98603.17
2019-05-29T12:45:18.900Z,98607.09
2019-05-29T12:50:22.724Z,98600.65
2019-05-29T12:52:59.692Z,98609.15
2019-05-29T12:55:49.269Z,98620.31
2019-05-29T13:00:49.319Z,98617.39
2019-05-29T13:03:03.111Z,98618.25
2019-05-29T13:05:20.732Z,98615.83
2019-05-29T13:07:38.307Z,98622.59
2019-05-29T13:10:00.983Z,98638.09
2019-05-29T13:12:22.265Z,98627.61
2019-05-29T13:14:41.635Z,98629.03
2019-05-29T13:16:58.845Z,98636.64
2019-05-29T13:19:13.818Z,98627.38
2019-05-29T13:21:25.919Z,98622.65
2019-05-29T13:23:46.817Z,98630.83
2019-05-29T13:26:03.736Z,98642.36
2019-05-29T13:28:20.543Z,98637.98
2019-05-29T13:30:36.970Z,98633.83
2019-05-29T13:33:13.172Z,98649.73
2019-05-29T13:35:51.018Z,98646.29
2019-05-29T13:38:07.387Z,98642.22
2019-05-29T13:40:41.684Z,98654.94
2019-05-29T13:43:11.462Z,98660.37
2019-05-29T13:45:24.854Z,98670.68
2019-05-29T13:47:39.825Z,98650.09
2019-05-29T13:50:12.041Z,98659.09
2019-05-29T13:52:23.264Z,98665.61
2019-05-29T13:54:37.822Z,98661.45
2019-05-29T13:56:52.202Z,98659.23
2019-05-29T14:02:06.302Z,98669.86
2019-05-29T14:04:28.892Z,98671.22
2019-05-29T14:06:41.805Z,98675.23
2019-05-29T14:08:53.803Z,98684.58
2019-05-29T14:11:09.381Z,98666.67
2019-05-29T14:13:40.618Z,98668.83
2019-05-29T14:15:52.510Z,98674.44
2019-05-29T14:18:17.824Z,98673.33
2019-05-29T14:20:36.061Z,98685.53
2019-05-29T14:23:28.817Z,98683.80
2019-05-29T14:25:46.957Z,98688.74
2019-05-29T14:28:14.512Z,98695.36
2019-05-29T14:30:40.839Z,98697.92
2019-05-29T14:32:54.373Z,98695.42
2019-05-29T14:35:11.245Z,98695.42
2019-05-29T14:37:30.137Z,98698.09
2019-05-29T14:39:51.561Z,98701.28
2019-05-29T14:42:08.241Z,98705.00
2019-05-29T14:44:28.657Z,98702.99
2019-05-29T14:47:03.752Z,98714.50
2019-05-29T14:49:26.548Z,98703.30
2019-05-29T14:51:42.116Z,98705.05
2019-05-29T14:54:06.730Z,98710.44
2019-05-29T14:57:00.005Z,98715.23
2019-05-29T14:59:20.742Z,98713.09
2019-05-29T15:01:38.295Z,98711.88
2019-05-29T15:03:53.977Z,98715.09
2019-05-29T15:06:41.202Z,98712.67
2019-05-29T15:09:19.410Z,98717.81
2019-05-29T15:11:46.558Z,98715.15
2019-05-29T15:14:01.628Z,98717.00
2019-05-29T15:16:26.836Z,98720.23
2019-05-29T15:21:43.455Z,98725.78
2019-05-29T15:23:55.040Z,98716.34
2019-05-29T15:26:13.896Z,98717.69
2019-05-29T15:28:26.721Z,98723.13
2019-05-29T15:31:19.668Z,98723.92
2019-05-29T15:34:00.847Z,98715.75
2019-05-29T15:36:36.502Z,98718.39
2019-05-29T15:38:53.107Z,98722.50
2019-05-29T15:41:30.081Z,98721.63
2019-05-29T15:44:02.044Z,98729.50
2019-05-29T15:46:53.668Z,98725.27
2019-05-29T15:49:26.349Z,98725.52
2019-05-29T15:51:48.799Z,98722.25
2019-05-29T15:54:05.498Z,98735.83
2019-05-29T15:56:41.041Z,98735.20
2019-05-29T15:58:57.850Z,98742.59
2019-05-29T16:01:15.747Z,98745.55
2019-05-29T16:03:28.906Z,98749.41
2019-05-29T16:05:45.617Z,98753.89
2019-05-29T16:08:02.065Z,98762.06
2019-05-29T16:10:23.015Z,98758.39
2019-05-29T16:12:37.574Z,98763.70
2019-05-29T16:15:11.242Z,98776.73
2019-05-29T16:17:47.541Z,98777.41
2019-05-29T16:20:30.565Z,98775.59
2019-05-29T16:22:54.074Z,98776.49
2019-05-29T16:25:16.821Z,98788.09
2019-05-29T16:27:54.033Z,98790.58
2019-05-29T16:30:25.922Z,98796.59
2019-05-29T16:32:59.118Z,98794.03
2019-05-29T16:35:40.911Z,98802.45
2019-05-29T16:38:27.003Z,98799.86
2019-05-29T16:41:00.299Z,98806.83
2019-05-29T16:43:26.732Z,98801.72
2019-05-29T16:45:47.737Z,98807.01
2019-05-29T16:51:13.139Z,98802.59
2019-05-29T16:53:33.765Z,98802.73
2019-05-29T16:55:53.730Z,98796.58
2019-05-29T16:58:36.466Z,98798.64
2019-05-29T17:00:56.857Z,98795.98
2019-05-29T17:03:25.957Z,98799.57
2019-05-29T17:05:44.502Z,98795.72
2019-05-29T17:07:57.629Z,98803.67
2019-05-29T17:10:12.485Z,98808.75
2019-05-29T17:12:42.609Z,98811.63
2019-05-29T17:14:55.834Z,98812.81
2019-05-29T17:17:12.132Z,98823.75
2019-05-29T17:19:27.811Z,98816.38
2019-05-29T17:21:42.163Z,98826.13
2019-05-29T17:23:56.434Z,98832.45
2019-05-29T17:26:11.986Z,98824.80
2019-05-29T17:28:56.239Z,98826.38
2019-05-29T17:31:09.364Z,98826.40
2019-05-29T17:33:23.202Z,98835.39
2019-05-29T17:35:37.547Z,98826.22
2019-05-29T17:37:52.410Z,98834.23
2019-05-29T17:40:27.145Z,98836.15
2019-05-29T17:42:39.746Z,98839.17
2019-05-29T17:44:48.976Z,98839.66
2019-05-29T17:47:00.386Z,98842.03
2019-05-29T17:49:22.592Z,98842.84
2019-05-29T17:51:44.724Z,98840.86
2019-05-29T17:53:57.235Z,98845.05
2019-05-29T17:56:26.385Z,98842.92
2019-05-29T17:58:31.974Z,98844.56
2019-05-29T18:00:46.530Z,98848.55
2019-05-29T18:03:06.410Z,98851.03
2019-05-29T18:05:45.512Z,98852.13
2019-05-29T18:08:04.499Z,98856.43
2019-05-29T18:16:27.793Z,98854.02
2019-05-29T18:18:51.163Z,98857.73
2019-05-29T18:21:28.758Z,98859.32
2019-05-29T18:23:42.908Z,98862.09
2019-05-29T18:25:57.972Z,98857.87
2019-05-29T18:28:13.356Z,98866.61
2019-05-29T18:30:43.062Z,98870.66
2019-05-29T18:33:27.307Z,98880.92
2019-05-29T18:35:50.976Z,98878.27
2019-05-29T18:38:06.251Z,98880.45
2019-05-29T18:40:40.587Z,98877.45
2019-05-29T18:43:11.509Z,98886.42
2019-05-29T18:45:27.962Z,98897.45
2019-05-29T18:51:10.236Z,98898.81
2019-05-29T18:53:37.280Z,98899.52
2019-05-29T18:56:13.032Z,98907.23
2019-05-29T18:58:54.008Z,98906.58
2019-05-29T19:01:08.664Z,98915.63
2019-05-29T19:03:25.390Z,98918.77
2019-05-29T19:05:40.231Z,98931.32
2019-05-29T19:07:57.346Z,98932.34
2019-05-29T19:10:34.738Z,98935.36
2019-05-29T19:13:15.072Z,98938.25
2019-05-29T19:16:02.836Z,98947.91
2019-05-29T19:18:15.954Z,98946.38
2019-05-29T19:20:36.037Z,98947.78
2019-05-29T19:23:09.334Z,98945.75
2019-05-29T19:25:39.658Z,98945.43
2019-05-29T19:27:53.597Z,98953.75
2019-05-29T19:30:15.015Z,98954.50
2019-05-29T19:32:57.423Z,98955.88
2019-05-29T19:35:35.225Z,98960.22
2019-05-29T19:37:49.069Z,98958.17
2019-05-29T19:40:05.871Z,98960.77
2019-05-29T19:42:35.581Z,98962.35
2019-05-29T19:45:18.324Z,98955.44
2019-05-29T19:47:46.879Z,98961.37
2019-05-29T19:50:03.084Z,98960.12
2019-05-29T19:52:13.634Z,98954.33
2019-05-29T19:54:27.455Z,98956.45
2019-05-29T19:56:51.040Z,98958.92
2019-05-29T19:59:05.388Z,98955.24
2019-05-29T20:01:30.707Z,98960.73
2019-05-29T20:03:52.421Z,98967.78
2019-05-29T20:06:35.357Z,98972.00
2019-05-29T20:09:03.004Z,98972.61
2019-05-29T20:11:19.811Z,98982.68
2019-05-29T20:14:02.327Z,98987.53
2019-05-29T20:16:19.031Z,98987.47
2019-05-29T20:18:40.247Z,98992.16
2019-05-29T20:20:55.818Z,98992.44
2019-05-29T20:23:12.522Z,98983.84
2019-05-29T20:25:53.673Z,98988.92
2019-05-29T20:28:36.371Z,98991.66
2019-05-29T20:31:04.695Z,98985.09
2019-05-29T20:33:36.674Z,98986.94
2019-05-29T20:36:00.635Z,98991.94
2019-05-29T20:38:14.268Z,98993.75
2019-05-29T20:40:30.957Z,98989.51
2019-05-29T20:42:53.517Z,98994.59
2019-05-29T20:45:08.688Z,98990.98
2019-05-29T20:47:26.927Z,98993.45
2019-05-29T20:49:55.619Z,98997.88
2019-05-29T20:52:41.440Z,98997.48
2019-05-29T20:54:58.664Z,99000.39
2019-05-29T20:57:17.065Z,98998.88
2019-05-29T21:00:05.622Z,99004.88
2019-05-29T21:02:27.955Z,99004.23
2019-05-29T21:05:12.514Z,99004.73
2019-05-29T21:07:29.322Z,99011.74
2019-05-29T21:10:02.414Z,99008.97
2019-05-29T21:12:48.714Z,99015.66
2019-05-29T21:15:13.612Z,99014.64
2019-05-29T21:17:49.977Z,99012.75
2019-05-29T21:20:44.563Z,99006.22
2019-05-29T21:23:21.142Z,99015.55
2019-05-29T21:26:04.371Z,99009.30
2019-05-29T21:28:50.084Z,99015.86
2019-05-29T21:31:25.091Z,99016.22
2019-05-29T21:33:50.499Z,99013.55
2019-05-29T21:36:38.049Z,99026.81
2019-05-29T21:39:22.616Z,99029.45
2019-05-29T21:42:11.416Z,99031.32
2019-05-29T21:44:48.601Z,99030.83
2019-05-29T21:47:36.902Z,99033.13
2019-05-29T21:50:07.815Z,99035.11
2019-05-29T21:52:34.149Z,99043.70
2019-05-29T21:55:04.884Z,99042.73
2019-05-29T21:57:24.667Z,99046.26
2019-05-29T22:00:04.273Z,99038.39
2019-05-29T22:02:44.340Z,99045.65
2019-05-29T22:08:08.561Z,99047.77
2019-05-29T22:10:51.285Z,99058.63
2019-05-29T22:13:05.625Z,99058.78
2019-05-29T22:15:43.189Z,99059.21
2019-05-29T22:18:20.534Z,99054.84
2019-05-29T22:20:46.636Z,99056.45
2019-05-29T22:23:23.925Z,99075.65
2019-05-29T22:26:08.175Z,99068.91
2019-05-29T22:28:28.872Z,99066.51
2019-05-29T22:30:53.295Z,99072.08
2019-05-29T22:33:34.644Z,99076.38
2019-05-29T22:36:22.686Z,99067.61
2019-05-29T22:38:59.768Z,99070.64
2019-05-29T22:41:33.522Z,99065.06
2019-05-29T22:43:59.752Z,99075.94
2019-05-29T22:46:31.766Z,99061.72
2019-05-29T22:49:02.849Z,99061.72
2019-05-29T22:51:25.042Z,99071.17
2019-05-29T22:53:52.433Z,99067.48
2019-05-29T22:56:22.723Z,99075.34
2019-05-29T22:59:00.738Z,99063.02
2019-05-29T23:01:20.403Z,99062.23
2019-05-29T23:04:02.713Z,99064.39
2019-05-29T23:06:58.239Z,99068.00
2019-05-29T23:09:18.925Z,99072.39
2019-05-29T23:11:46.383Z,99073.50
2019-05-29T23:14:02.532Z,99067.37
2019-05-29T23:16:23.616Z,99071.95
2019-05-29T23:18:56.979Z,99080.48
2019-05-29T23:21:11.021Z,99076.39
2019-05-29T23:23:36.944Z,99079.50
2019-05-29T23:26:08.398Z,99068.92
2019-05-29T23:28:47.016Z,99077.41
2019-05-29T23:31:09.147Z,99081.02
2019-05-29T23:33:54.905Z,99089.45
2019-05-29T23:36:30.082Z,99082.58
2019-05-29T23:39:16.884Z,99078.43
2019-05-29T23:42:01.478Z,99082.56
2019-05-29T23:47:37.140Z,99084.19
2019-05-29T23:50:04.776Z,99077.91
2019-05-29T23:52:33.567Z,99078.37
2019-05-29T23:54:50.889Z,99079.50
2019-05-29T23:57:21.211Z,99079.30
